createdAt,value
2022-12-20T00:01:52.618Z,34.42
2022-12-20T00:04:20.510Z,32.05
2022-12-20T00:06:48.255Z,30.20
2022-12-20T00:09:15.889Z,33.50
2022-12-20T00:11:43.572Z,37.58
2022-12-20T00:14:11.521Z,33.95
2022-12-20T00:16:39.494Z,33.30
2022-12-20T00:19:07.824Z,31.83
2022-12-20T00:21:36.394Z,35.50
2022-12-20T00:24:06.334Z,35.17
2022-12-20T00:26:36.058Z,30.42
2022-12-20T00:29:05.411Z,33.60
2022-12-20T00:31:33.808Z,30.45
2022-12-20T00:34:02.404Z,32.63
2022-12-20T00:36:32.477Z,31.63
2022-12-20T00:39:01.374Z,30.20
2022-12-20T00:41:33.340Z,30.58
2022-12-20T00:44:04.086Z,30.48
2022-12-20T00:46:34.190Z,29.77
2022-12-20T00:49:02.102Z,30.92
2022-12-20T00:51:32.596Z,28.17
2022-12-20T00:54:00.497Z,27.73
2022-12-20T00:56:28.200Z,28.23
2022-12-20T00:58:59.882Z,28.83
2022-12-20T01:01:31.866Z,29.35
2022-12-20T01:04:00.148Z,29.02
2022-12-20T01:06:29.221Z,27.73
2022-12-20T01:08:58.150Z,29.63
2022-12-20T01:11:34.643Z,30.65
2022-12-20T01:14:11.468Z,26.27
2022-12-20T01:16:47.061Z,26.75
2022-12-20T01:19:18.405Z,23.27
2022-12-20T01:21:46.687Z,19.47
2022-12-20T01:24:19.916Z,21.73
2022-12-20T01:26:47.770Z,22.33
2022-12-20T01:29:16.151Z,23.55
2022-12-20T01:31:44.370Z,25.98
2022-12-20T01:34:12.436Z,22.25
2022-12-20T01:36:41.145Z,23.35
2022-12-20T01:39:15.375Z,21.52
2022-12-20T01:41:45.565Z,21.70
2022-12-20T01:44:19.320Z,22.77
2022-12-20T01:46:49.332Z,22.40
2022-12-20T01:49:22.245Z,22.63
2022-12-20T01:51:55.394Z,20.35
2022-12-20T01:54:31.982Z,22.20
2022-12-20T01:57:12.747Z,25.00
2022-12-20T01:59:44.596Z,22.40
2022-12-20T02:02:13.995Z,22.05
2022-12-20T02:04:42.121Z,22.75
2022-12-20T02:07:24.443Z,24.55
2022-12-20T02:09:53.611Z,22.60
2022-12-20T02:12:25.539Z,20.33
2022-12-20T02:15:11.079Z,21.90
2022-12-20T02:18:11.301Z,22.10
2022-12-20T02:21:31.340Z,22.30
2022-12-20T02:24:26.965Z,24.02
2022-12-20T02:27:17.845Z,19.90
2022-12-20T02:30:12.106Z,19.43
2022-12-20T02:33:05.215Z,18.90
2022-12-20T02:35:36.084Z,20.27
2022-12-20T02:38:27.972Z,21.60
2022-12-20T02:41:07.130Z,20.70
2022-12-20T02:43:56.571Z,20.50
2022-12-20T02:46:26.490Z,20.33
2022-12-20T02:49:00.414Z,17.70
2022-12-20T02:51:30.607Z,19.45
2022-12-20T02:54:00.069Z,19.50
2022-12-20T02:56:31.293Z,20.55
2022-12-20T02:59:23.341Z,20.02
2022-12-20T03:01:56.325Z,19.83
2022-12-20T03:04:32.277Z,17.95
2022-12-20T03:07:04.002Z,17.50
2022-12-20T03:12:01.719Z,18.00
2022-12-20T03:14:31.490Z,17.25
2022-12-20T03:17:02.350Z,16.80
2022-12-20T03:19:30.310Z,16.67
2022-12-20T03:21:59.313Z,19.92
2022-12-20T03:24:27.258Z,17.35
2022-12-20T03:26:55.679Z,18.98
2022-12-20T03:29:25.458Z,18.95
2022-12-20T03:31:54.160Z,19.20
2022-12-20T03:34:21.890Z,18.15
2022-12-20T03:36:50.124Z,19.52
2022-12-20T03:39:17.931Z,19.33
2022-12-20T03:41:46.199Z,16.88
2022-12-20T03:44:18.542Z,18.65
2022-12-20T03:46:46.508Z,17.35
2022-12-20T03:49:14.523Z,16.73
2022-12-20T03:51:47.511Z,19.63
2022-12-20T03:54:15.365Z,18.27
2022-12-20T03:57:07.590Z,18.42
2022-12-20T03:59:35.776Z,17.48
2022-12-20T04:02:05.848Z,20.48
2022-12-20T04:04:34.913Z,18.88
2022-12-20T04:07:02.721Z,19.25
2022-12-20T04:09:31.013Z,18.77
2022-12-20T04:12:06.101Z,24.30
2022-12-20T04:14:37.321Z,16.83
2022-12-20T04:17:05.965Z,19.25
2022-12-20T04:19:34.693Z,18.20
2022-12-20T04:22:06.133Z,20.90
2022-12-20T04:24:54.475Z,20.52
2022-12-20T04:27:28.085Z,20.10
2022-12-20T04:29:57.719Z,21.30
2022-12-20T04:32:25.495Z,19.98
2022-12-20T04:34:53.432Z,19.90
2022-12-20T04:37:21.542Z,21.10
2022-12-20T04:39:55.337Z,21.88
2022-12-20T04:43:01.190Z,20.30
2022-12-20T04:45:29.066Z,21.35
2022-12-20T04:47:57.211Z,20.30
2022-12-20T04:50:33.919Z,23.95
2022-12-20T04:53:20.482Z,25.40
2022-12-20T04:55:50.208Z,25.77
2022-12-20T04:58:18.447Z,25.13
2022-12-20T05:00:46.874Z,21.65
2022-12-20T05:03:27.759Z,22.88
2022-12-20T05:05:56.603Z,22.70
2022-12-20T05:08:25.093Z,20.95
2022-12-20T05:10:54.078Z,21.00
2022-12-20T05:13:22.881Z,20.90
2022-12-20T05:15:56.029Z,19.88
2022-12-20T05:18:27.687Z,25.77
2022-12-20T05:21:27.933Z,36.85
2022-12-20T05:24:14.775Z,40.33
2022-12-20T05:27:00.978Z,41.58
2022-12-20T05:29:28.905Z,38.95
2022-12-20T05:31:56.813Z,31.55
2022-12-20T05:34:24.881Z,25.38
2022-12-20T05:36:54.873Z,24.90
2022-12-20T05:39:25.105Z,23.63
2022-12-20T05:41:55.928Z,20.80
2022-12-20T05:44:26.217Z,23.73
2022-12-20T05:46:57.304Z,23.15
2022-12-20T05:49:29.693Z,23.88
2022-12-20T05:52:01.782Z,21.83
2022-12-20T05:54:30.097Z,21.77
2022-12-20T05:57:06.121Z,20.20
2022-12-20T05:59:38.113Z,20.80
2022-12-20T06:02:10.637Z,20.03
2022-12-20T06:04:38.769Z,20.15
2022-12-20T06:07:14.393Z,23.38
2022-12-20T06:09:43.964Z,21.25
2022-12-20T06:12:15.164Z,20.95
2022-12-20T06:14:43.610Z,23.55
2022-12-20T06:17:13.814Z,20.33
2022-12-20T06:19:41.689Z,20.33
2022-12-20T06:22:11.617Z,19.77
2022-12-20T06:24:56.358Z,21.98
2022-12-20T06:27:28.133Z,22.13
2022-12-20T06:30:09.893Z,20.73
2022-12-20T06:32:56.451Z,21.90
2022-12-20T06:35:24.437Z,22.10
2022-12-20T06:37:55.609Z,21.10
2022-12-20T06:40:23.896Z,22.00
2022-12-20T06:42:51.783Z,20.13
2022-12-20T06:45:22.869Z,21.65
2022-12-20T06:47:50.881Z,19.25
2022-12-20T06:50:18.624Z,19.85
2022-12-20T06:52:46.322Z,20.65
2022-12-20T06:55:14.244Z,19.90
2022-12-20T06:57:43.042Z,18.77
2022-12-20T07:00:12.810Z,21.77
2022-12-20T07:02:40.590Z,17.90
2022-12-20T07:05:09.003Z,19.17
2022-12-20T07:07:44.384Z,19.23
2022-12-20T07:10:12.889Z,16.83
2022-12-20T07:12:47.198Z,17.20
2022-12-20T07:15:16.882Z,18.48
2022-12-20T07:17:45.216Z,19.02
2022-12-20T07:20:14.330Z,18.15
2022-12-20T07:22:42.451Z,22.98
2022-12-20T07:25:11.628Z,23.48
2022-12-20T07:27:39.641Z,25.25
2022-12-20T07:30:08.266Z,23.38
2022-12-20T07:32:36.057Z,29.02
2022-12-20T07:35:03.821Z,30.48
2022-12-20T07:37:31.584Z,39.35
2022-12-20T07:39:59.403Z,38.90
2022-12-20T07:42:29.055Z,37.95
2022-12-20T07:45:03.727Z,40.00
2022-12-20T07:47:31.461Z,36.35
2022-12-20T07:49:59.099Z,36.55
2022-12-20T07:52:29.890Z,32.58
2022-12-20T07:55:01.604Z,34.53
2022-12-20T07:57:44.965Z,45.80
2022-12-20T08:00:13.921Z,31.15
2022-12-20T08:03:16.386Z,30.98
2022-12-20T08:05:48.891Z,24.80
2022-12-20T08:08:17.552Z,25.42
2022-12-20T08:10:46.698Z,23.80
2022-12-20T08:13:15.260Z,23.90
2022-12-20T08:15:43.046Z,22.23
2022-12-20T08:18:10.772Z,23.10
2022-12-20T08:20:38.698Z,26.08
2022-12-20T08:23:06.371Z,24.70
2022-12-20T08:25:41.204Z,29.58
2022-12-20T08:28:09.932Z,26.05
2022-12-20T08:30:38.000Z,26.80
2022-12-20T08:33:06.057Z,25.40
2022-12-20T08:35:34.106Z,29.15
2022-12-20T08:38:01.811Z,29.98
2022-12-20T08:40:29.576Z,26.85
2022-12-20T08:42:58.602Z,25.52
2022-12-20T08:45:26.655Z,24.13
2022-12-20T08:47:55.068Z,28.33
2022-12-20T08:50:22.807Z,35.05
2022-12-20T08:52:50.613Z,28.80
2022-12-20T08:55:22.031Z,24.58
2022-12-20T08:57:52.612Z,26.92
2022-12-20T09:00:21.138Z,28.02
2022-12-20T09:02:50.909Z,24.08
2022-12-20T09:05:18.745Z,23.00
2022-12-20T09:07:47.632Z,28.92
2022-12-20T09:10:15.487Z,28.42
2022-12-20T09:12:43.344Z,28.17
2022-12-20T09:15:11.815Z,31.88
2022-12-20T09:17:39.475Z,41.63
2022-12-20T09:20:08.119Z,30.20
2022-12-20T09:22:35.790Z,36.03
2022-12-20T09:25:03.561Z,33.10
2022-12-20T09:27:31.301Z,26.45
2022-12-20T09:29:59.199Z,28.90
2022-12-20T09:32:26.851Z,26.02
2022-12-20T09:34:54.506Z,24.40
2022-12-20T09:37:22.314Z,28.27
2022-12-20T09:39:51.406Z,30.42
2022-12-20T09:42:25.694Z,25.23
2022-12-20T09:45:03.427Z,22.55
2022-12-20T09:47:34.689Z,28.27
2022-12-20T09:50:05.019Z,24.83
2022-12-20T09:52:51.875Z,20.88
2022-12-20T09:55:43.456Z,22.13
2022-12-20T09:58:41.737Z,23.33
2022-12-20T10:01:25.585Z,22.70
2022-12-20T10:03:56.063Z,19.67
2022-12-20T10:07:14.635Z,19.33
2022-12-20T10:09:58.197Z,19.30
2022-12-20T10:12:46.328Z,24.27
2022-12-20T10:15:26.644Z,21.45
2022-12-20T10:18:06.742Z,17.23
2022-12-20T10:21:08.786Z,15.82
2022-12-20T10:26:26.041Z,15.18
2022-12-20T10:28:54.726Z,17.10
2022-12-20T10:31:23.242Z,15.07
2022-12-20T10:33:51.035Z,20.08
2022-12-20T10:36:28.813Z,25.83
2022-12-20T10:39:09.262Z,20.00
2022-12-20T10:41:57.112Z,20.05
2022-12-20T10:44:44.865Z,18.50
2022-12-20T10:47:35.879Z,16.60
2022-12-20T10:50:21.536Z,16.17
2022-12-20T10:53:11.295Z,20.20
2022-12-20T10:55:42.473Z,17.40
2022-12-20T10:58:35.405Z,15.73
2022-12-20T11:01:20.062Z,16.48
2022-12-20T11:04:05.009Z,15.43
2022-12-20T11:06:38.891Z,19.23
2022-12-20T11:09:52.153Z,16.63
2022-12-20T11:12:20.221Z,15.93
2022-12-20T11:14:49.380Z,17.33
2022-12-20T11:17:48.819Z,21.27
2022-12-20T11:20:26.508Z,15.85
2022-12-20T11:23:16.059Z,18.58
2022-12-20T11:26:18.563Z,19.20
2022-12-20T11:29:03.926Z,18.45
2022-12-20T11:32:08.273Z,19.15
2022-12-20T11:35:07.871Z,14.82
2022-12-20T11:38:05.557Z,17.58
2022-12-20T11:41:14.278Z,17.48
2022-12-20T11:44:25.129Z,18.30
2022-12-20T11:47:39.801Z,17.98
2022-12-20T11:50:51.327Z,17.35
2022-12-20T11:53:26.785Z,17.90
2022-12-20T11:56:02.103Z,31.00
2022-12-20T11:58:42.386Z,21.05
2022-12-20T12:01:16.524Z,22.15
2022-12-20T12:03:57.994Z,23.10
2022-12-20T12:06:42.695Z,21.48
2022-12-20T12:09:23.473Z,19.45
2022-12-20T12:12:24.239Z,23.98
2022-12-20T12:15:17.430Z,57.17
2022-12-20T12:18:05.830Z,35.60
2022-12-20T12:21:08.519Z,19.85
2022-12-20T12:24:18.306Z,21.65
2022-12-20T12:26:46.359Z,21.02
2022-12-20T12:29:20.887Z,16.92
2022-12-20T12:32:34.930Z,15.93
2022-12-20T12:35:41.066Z,17.10
2022-12-20T12:38:33.833Z,17.02
2022-12-20T12:41:27.574Z,21.63
2022-12-20T12:44:05.440Z,20.08
2022-12-20T12:46:37.516Z,18.60
2022-12-20T12:49:17.609Z,18.65
2022-12-20T12:51:57.303Z,14.52
2022-12-20T12:54:31.199Z,13.45
2022-12-20T12:57:16.389Z,13.32
2022-12-20T12:59:50.549Z,13.40
2022-12-20T13:02:20.654Z,11.95
2022-12-20T13:05:09.006Z,15.27
2022-12-20T13:07:37.035Z,15.23
2022-12-20T13:10:20.195Z,13.60
2022-12-20T13:13:01.402Z,20.58
2022-12-20T13:15:30.338Z,25.38
2022-12-20T13:18:21.770Z,23.42
2022-12-20T13:21:31.157Z,20.40
2022-12-20T13:24:36.117Z,18.15
2022-12-20T13:27:35.630Z,14.68
2022-12-20T13:30:12.004Z,18.13
2022-12-20T13:32:49.069Z,15.38
2022-12-20T13:35:26.834Z,17.60
2022-12-20T13:38:24.886Z,15.10
2022-12-20T13:41:00.252Z,16.15
2022-12-20T13:43:44.739Z,15.40
2022-12-20T13:46:32.803Z,15.63
2022-12-20T13:49:04.347Z,19.00
2022-12-20T13:51:32.305Z,12.20
2022-12-20T13:54:07.874Z,15.52
2022-12-20T13:56:41.738Z,18.58
2022-12-20T13:59:31.704Z,22.50
2022-12-20T14:02:11.073Z,25.08
2022-12-20T14:04:46.529Z,31.08
2022-12-20T14:07:18.158Z,30.40
2022-12-20T14:12:28.614Z,27.40
2022-12-20T14:14:59.809Z,26.38
2022-12-20T14:17:33.258Z,31.42
2022-12-20T14:20:15.996Z,27.80
2022-12-20T14:23:04.121Z,25.55
2022-12-20T14:25:44.650Z,26.92
2022-12-20T14:28:58.239Z,25.42
2022-12-20T14:31:41.060Z,25.50
2022-12-20T14:34:12.024Z,25.67
2022-12-20T14:36:50.669Z,27.17
2022-12-20T14:39:21.393Z,31.52
2022-12-20T14:42:00.193Z,29.27
2022-12-20T14:44:31.820Z,25.90
2022-12-20T14:47:34.135Z,23.27
2022-12-20T14:50:34.132Z,22.73
2022-12-20T14:53:03.025Z,25.33
2022-12-20T14:55:39.446Z,28.08
2022-12-20T14:58:23.923Z,22.92
2022-12-20T15:01:02.345Z,28.35
2022-12-20T15:03:30.598Z,28.20
2022-12-20T15:06:00.562Z,21.95
2022-12-20T15:08:33.124Z,27.45
2022-12-20T15:11:10.376Z,28.63
2022-12-20T15:13:46.744Z,23.17
2022-12-20T15:16:18.643Z,19.60
2022-12-20T15:21:37.415Z,17.00
2022-12-20T15:24:11.750Z,15.60
2022-12-20T15:26:39.752Z,16.95
2022-12-20T15:29:15.118Z,18.70
2022-12-20T15:31:44.300Z,17.08
2022-12-20T15:34:38.466Z,21.30
2022-12-20T15:37:06.823Z,16.23
2022-12-20T15:39:34.748Z,28.60
2022-12-20T15:42:04.973Z,24.60
2022-12-20T15:44:35.981Z,25.98
2022-12-20T15:47:03.870Z,35.60
2022-12-20T15:49:34.444Z,36.92
2022-12-20T15:52:02.353Z,38.45
2022-12-20T15:54:32.786Z,36.03
2022-12-20T15:57:04.560Z,39.70
2022-12-20T16:02:26.924Z,31.23
2022-12-20T16:04:55.637Z,26.95
2022-12-20T16:07:24.360Z,25.52
2022-12-20T16:09:52.645Z,25.92
2022-12-20T16:12:29.486Z,28.85
2022-12-20T16:14:57.665Z,27.45
2022-12-20T16:17:25.630Z,30.75
2022-12-20T16:19:53.585Z,27.13
2022-12-20T16:22:23.491Z,26.75
2022-12-20T16:24:52.063Z,27.45
2022-12-20T16:27:20.489Z,28.08
2022-12-20T16:29:48.576Z,23.92
2022-12-20T16:32:21.754Z,25.30
2022-12-20T16:34:50.083Z,25.80
2022-12-20T16:37:18.088Z,26.05
2022-12-20T16:39:45.803Z,32.15
2022-12-20T16:42:33.473Z,26.58
2022-12-20T16:45:01.504Z,25.30
2022-12-20T16:47:29.455Z,24.60
2022-12-20T16:49:57.153Z,26.13
2022-12-20T16:52:25.099Z,27.52
2022-12-20T16:54:53.901Z,29.63
2022-12-20T16:57:22.032Z,26.48
2022-12-20T16:59:49.870Z,30.38
2022-12-20T17:02:29.193Z,47.83
2022-12-20T17:04:57.568Z,34.05
2022-12-20T17:07:27.522Z,36.92
2022-12-20T17:09:55.216Z,29.15
2022-12-20T17:12:23.522Z,33.15
2022-12-20T17:14:51.340Z,28.98
2022-12-20T17:17:19.204Z,25.80
2022-12-20T17:19:46.969Z,30.13
2022-12-20T17:25:02.591Z,25.58
2022-12-20T17:27:30.503Z,24.73
2022-12-20T17:29:58.359Z,31.10
2022-12-20T17:32:26.406Z,29.42
2022-12-20T17:34:54.540Z,29.50
2022-12-20T17:37:22.697Z,29.42
2022-12-20T17:39:50.438Z,25.60
2022-12-20T17:42:18.236Z,29.27
2022-12-20T17:44:49.186Z,31.25
2022-12-20T17:47:17.371Z,32.50
2022-12-20T17:49:45.254Z,32.78
2022-12-20T17:52:16.306Z,37.47
2022-12-20T17:54:44.075Z,45.47
2022-12-20T17:57:16.457Z,33.50
2022-12-20T17:59:44.986Z,29.33
2022-12-20T18:02:22.568Z,27.05
2022-12-20T18:04:51.598Z,25.77
2022-12-20T18:07:19.690Z,25.50
2022-12-20T18:09:49.117Z,23.58
2022-12-20T18:12:17.855Z,25.20
2022-12-20T18:14:47.666Z,25.77
2022-12-20T18:17:15.662Z,22.75
2022-12-20T18:19:43.926Z,25.50
2022-12-20T18:22:12.214Z,24.52
2022-12-20T18:24:40.598Z,29.13
2022-12-20T18:27:08.382Z,24.50
2022-12-20T18:29:36.368Z,25.17
2022-12-20T18:32:04.904Z,25.55
2022-12-20T18:34:33.011Z,26.73
2022-12-20T18:37:01.953Z,34.58
2022-12-20T18:39:29.909Z,38.72
2022-12-20T18:41:57.878Z,47.40
2022-12-20T18:44:25.689Z,47.33
2022-12-20T18:46:54.690Z,48.38
2022-12-20T18:49:23.690Z,45.67
2022-12-20T18:51:51.506Z,44.28
2022-12-20T18:54:19.297Z,40.80
2022-12-20T18:56:49.015Z,44.42
2022-12-20T18:59:16.988Z,44.08
2022-12-20T19:01:44.829Z,48.45
2022-12-20T19:04:14.288Z,50.67
2022-12-20T19:06:43.799Z,42.55
2022-12-20T19:09:13.881Z,42.00
2022-12-20T19:11:43.135Z,37.60
2022-12-20T19:14:12.834Z,39.88
2022-12-20T19:16:41.069Z,37.63
2022-12-20T19:19:10.002Z,35.55
2022-12-20T19:21:42.877Z,35.00
2022-12-20T19:24:11.709Z,33.65
2022-12-20T19:26:40.465Z,37.25
2022-12-20T19:29:09.367Z,28.05
2022-12-20T19:31:38.277Z,30.30
2022-12-20T19:34:10.669Z,31.40
2022-12-20T19:36:45.091Z,34.17
2022-12-20T19:39:23.050Z,31.80
2022-12-20T19:42:22.212Z,33.55
2022-12-20T19:44:40.691Z,33.20
2022-12-20T19:47:09.132Z,33.42
2022-12-20T19:49:40.044Z,34.13
2022-12-20T19:52:08.086Z,28.27
2022-12-20T19:54:36.151Z,32.85
2022-12-20T19:57:04.269Z,29.90
2022-12-20T19:59:32.411Z,28.92
2022-12-20T20:02:00.659Z,30.17
2022-12-20T20:04:29.427Z,30.73
2022-12-20T20:06:57.991Z,29.73
2022-12-20T20:09:25.896Z,27.55
2022-12-20T20:11:54.302Z,30.52
2022-12-20T20:14:22.535Z,28.73
2022-12-20T20:16:50.983Z,29.88
2022-12-20T20:19:20.522Z,30.90
2022-12-20T20:21:49.664Z,30.38
2022-12-20T20:24:18.058Z,37.80
2022-12-20T20:26:46.214Z,43.05
2022-12-20T20:29:14.393Z,44.60
2022-12-20T20:31:42.637Z,44.60
2022-12-20T20:34:10.952Z,47.60
2022-12-20T20:36:39.607Z,45.75
2022-12-20T20:39:08.111Z,48.75
2022-12-20T20:41:36.229Z,54.97
2022-12-20T20:44:04.539Z,62.10
2022-12-20T20:46:33.063Z,65.53
2022-12-20T20:49:01.407Z,49.30
2022-12-20T20:51:29.639Z,41.78
2022-12-20T20:53:58.462Z,35.63
2022-12-20T20:56:26.590Z,29.15
2022-12-20T20:59:02.891Z,29.00
2022-12-20T21:01:34.392Z,27.40
2022-12-20T21:04:02.960Z,27.48
2022-12-20T21:06:39.955Z,31.73
2022-12-20T21:09:09.563Z,28.50
2022-12-20T21:11:38.000Z,26.55
2022-12-20T21:14:06.471Z,30.15
2022-12-20T21:16:34.682Z,31.30
2022-12-20T21:19:03.160Z,27.88
2022-12-20T21:21:31.129Z,30.48
2022-12-20T21:23:59.209Z,27.90
2022-12-20T21:26:27.453Z,29.27
2022-12-20T21:29:01.448Z,26.58
2022-12-20T21:31:30.872Z,24.33
2022-12-20T21:33:59.423Z,25.42
2022-12-20T21:36:27.542Z,22.15
2022-12-20T21:38:57.824Z,25.20
2022-12-20T21:41:28.662Z,22.67
2022-12-20T21:43:59.064Z,20.90
2022-12-20T21:46:29.575Z,23.08
2022-12-20T21:48:58.779Z,18.93
2022-12-20T21:51:29.002Z,17.48
2022-12-20T21:54:02.424Z,18.50
2022-12-20T21:56:33.099Z,15.57
2022-12-20T21:59:02.486Z,17.17
2022-12-20T22:01:31.747Z,26.45
2022-12-20T22:04:05.700Z,39.63
2022-12-20T22:06:36.782Z,30.85
2022-12-20T22:09:09.243Z,25.73
2022-12-20T22:11:38.107Z,26.80
2022-12-20T22:14:06.849Z,23.85
2022-12-20T22:16:35.382Z,17.88
2022-12-20T22:19:04.289Z,21.52
2022-12-20T22:21:34.312Z,17.92
2022-12-20T22:24:03.054Z,20.00
2022-12-20T22:26:33.601Z,16.98
2022-12-20T22:29:07.039Z,20.33
2022-12-20T22:31:36.653Z,20.50
2022-12-20T22:34:05.058Z,18.70
2022-12-20T22:36:33.159Z,19.45
2022-12-20T22:39:01.254Z,19.67
2022-12-20T22:41:34.492Z,17.52
2022-12-20T22:44:02.981Z,18.98
2022-12-20T22:46:31.909Z,18.67
2022-12-20T22:48:59.878Z,16.83
2022-12-20T22:51:30.931Z,21.73
2022-12-20T22:54:00.078Z,18.52
2022-12-20T22:56:28.508Z,21.30
2022-12-20T22:58:57.490Z,21.13
2022-12-20T23:01:26.253Z,23.48
2022-12-20T23:03:54.426Z,21.65
2022-12-20T23:06:23.383Z,21.73
2022-12-20T23:08:51.474Z,23.17
2022-12-20T23:11:45.171Z,24.67
2022-12-20T23:14:40.600Z,18.88
2022-12-20T23:17:10.998Z,20.85
2022-12-20T23:19:58.190Z,19.63
2022-12-20T23:22:39.062Z,18.65
2022-12-20T23:25:15.597Z,17.40
2022-12-20T23:27:46.486Z,18.55
2022-12-20T23:30:20.392Z,14.77
2022-12-20T23:32:49.495Z,17.10
2022-12-20T23:35:26.118Z,19.13
2022-12-20T23:37:58.950Z,17.88
2022-12-20T23:40:26.804Z,16.05
2022-12-20T23:42:55.437Z,15.57
2022-12-20T23:45:23.202Z,16.00
2022-12-20T23:47:51.945Z,14.20
2022-12-20T23:50:20.350Z,14.73
2022-12-20T23:52:50.320Z,15.10
2022-12-20T23:55:18.568Z,17.02
2022-12-20T23:57:46.562Z,13.32
